Time,TemperatureF,DewpointF,PressureIn,WindDirection,WindDirectionDegrees,WindSpeedMPH,WindSpeedGustMPH,Humidity,HourlyPrecipIn,Conditions,Clouds,dailyrainin,SoftwareType,DateUTC
2013-02-04 00:09:00,42.3,25.0,30.00,SSW,193,6.0,15.0,50,0.00,,,0.00,weatherlink.com 1.10,2013-02-04 06:09:00,
2013-02-04 00:24:00,42.5,25.0,30.00,SSW,196,7.0,13.0,50,0.00,,,0.00,weatherlink.com 1.10,2013-02-04 06:24:00,
2013-02-04 00:39:00,42.9,25.0,29.99,SSW,192,8.0,14.0,49,0.00,,,0.00,weatherlink.com 1.10,2013-02-04 06:39:00,
2013-02-04 00:54:00,43.4,25.0,29.98,WSW,248,3.0,14.0,48,0.00,,,0.00,weatherlink.com 1.10,2013-02-04 06:54:00,
2013-02-04 01:09:00,43.7,25.0,29.98,SSW,202,8.0,17.0,48,0.00,,,0.00,weatherlink.com 1.10,2013-02-04 07:09:00,
2013-02-04 01:24:00,43.8,26.0,29.98,SSW,202,6.0,14.0,49,0.00,,,0.00,weatherlink.com 1.10,2013-02-04 07:24:00,
2013-02-04 01:39:00,43.8,25.0,29.97,SSW,193,7.0,15.0,48,0.00,,,0.00,weatherlink.com 1.10,2013-02-04 07:39:00,
2013-02-04 01:54:00,44.1,25.0,29.96,South,188,6.0,15.0,48,0.00,,,0.00,weatherlink.com 1.10,2013-02-04 07:54:00,
2013-02-04 02:09:00,44.3,26.0,29.96,South,178,8.0,14.0,48,0.00,,,0.00,weatherlink.com 1.10,2013-02-04 08:09:00,
2013-02-04 02:24:00,44.4,26.0,29.95,SSW,196,10.0,14.0,49,0.00,,,0.00,weatherlink.com 1.10,2013-02-04 08:24:00,
2013-02-04 02:39:00,44.2,26.0,29.95,SSW,202,4.0,14.0,49,0.00,,,0.00,weatherlink.com 1.10,2013-02-04 08:39:00,
2013-02-04 02:54:00,44.2,26.0,29.94,SSE,166,6.0,13.0,49,0.00,,,0.00,weatherlink.com 1.10,2013-02-04 08:54:00,
2013-02-04 03:09:00,44.3,26.0,29.93,South,182,6.0,15.0,49,0.00,,,0.00,weatherlink.com 1.10,2013-02-04 09:09:00,
2013-02-04 03:24:00,44.9,26.0,29.93,SW,217,8.0,17.0,48,0.00,,,0.00,weatherlink.com 1.10,2013-02-04 09:24:00,
2013-02-04 03:39:00,45.2,26.0,29.92,SW,229,11.0,14.0,48,0.00,,,0.00,weatherlink.com 1.10,2013-02-04 09:39:00,
2013-02-04 03:54:00,45.0,27.0,29.91,SSW,196,8.0,14.0,49,0.00,,,0.00,weatherlink.com 1.10,2013-02-04 09:54:00,
2013-02-04 04:09:00,45.2,26.0,29.91,SSW,201,7.0,13.0,48,0.00,,,0.00,weatherlink.com 1.10,2013-02-04 10:09:00,
2013-02-04 04:24:00,45.2,27.0,29.91,SW,233,5.0,13.0,49,0.00,,,0.00,weatherlink.com 1.10,2013-02-04 10:24:00,
2013-02-04 04:39:00,45.1,27.0,29.90,South,180,10.0,14.0,49,0.00,,,0.00,weatherlink.com 1.10,2013-02-04 10:39:00,
2013-02-04 04:54:00,45.4,27.0,29.90,South,180,9.0,12.0,49,0.00,,,0.00,weatherlink.com 1.10,2013-02-04 10:54:00,
2013-02-04 05:09:00,45.6,27.0,29.90,SW,225,4.0,13.0,49,0.00,,,0.00,weatherlink.com 1.10,2013-02-04 11:09:00,
2013-02-04 05:24:00,45.6,27.0,29.89,SW,216,6.0,12.0,49,0.00,,,0.00,weatherlink.com 1.10,2013-02-04 11:24:00,
2013-02-04 05:39:00,45.5,28.0,29.88,SSW,194,7.0,12.0,50,0.00,,,0.00,weatherlink.com 1.10,2013-02-04 11:39:00,
2013-02-04 05:54:00,45.0,30.0,29.88,SSW,206,7.0,21.0,55,0.00,,,0.00,weatherlink.com 1.10,2013-02-04 11:54:00,
2013-02-04 06:09:00,44.4,31.0,29.87,South,185,10.0,16.0,60,0.00,,,0.00,weatherlink.com 1.10,2013-02-04 12:09:00,
2013-02-04 06:24:00,44.6,30.0,29.87,SW,224,9.0,20.0,56,0.00,,,0.00,weatherlink.com 1.10,2013-02-04 12:24:00,
2013-02-04 06:39:00,44.8,30.0,29.87,SSW,207,4.0,17.0,56,0.00,,,0.00,weatherlink.com 1.10,2013-02-04 12:39:00,
2013-02-04 06:55:00,45.5,30.0,29.88,SW,225,4.0,16.0,55,0.00,,,0.00,weatherlink.com 1.10,2013-02-04 12:55:00,
2013-02-04 07:10:00,46.1,31.0,29.87,SSW,211,7.0,20.0,55,0.00,,,0.00,weatherlink.com 1.10,2013-02-04 13:10:00,
2013-02-04 07:25:00,46.6,31.0,29.87,SSW,209,6.0,15.0,54,0.00,,,0.00,weatherlink.com 1.10,2013-02-04 13:25:00,
2013-02-04 07:40:00,46.5,31.0,29.88,SSW,208,7.0,14.0,55,0.00,,,0.00,weatherlink.com 1.10,2013-02-04 13:40:00,
2013-02-04 07:55:00,45.6,32.0,29.88,SW,217,2.0,12.0,59,0.00,,,0.00,weatherlink.com 1.10,2013-02-04 13:55:00,
2013-02-04 08:10:00,45.7,33.0,29.88,SSW,207,7.0,17.0,61,0.00,,,0.00,weatherlink.com 1.10,2013-02-04 14:10:00,
2013-02-04 08:25:00,45.8,34.0,29.89,SSW,204,8.0,17.0,63,0.00,,,0.00,weatherlink.com 1.10,2013-02-04 14:25:00,
2013-02-04 08:40:00,46.6,35.0,29.89,SW,217,5.0,14.0,64,0.00,,,0.00,weatherlink.com 1.10,2013-02-04 14:40:00,
2013-02-04 08:55:00,47.2,35.0,29.90,SSW,200,11.0,18.0,64,0.00,,,0.00,weatherlink.com 1.10,2013-02-04 14:55:00,
2013-02-04 09:10:00,47.4,35.0,29.91,SW,225,10.0,18.0,63,0.00,,,0.00,weatherlink.com 1.10,2013-02-04 15:10:00,
2013-02-04 09:25:00,47.2,35.0,29.91,WSW,238,10.0,20.0,64,0.00,,,0.00,weatherlink.com 1.10,2013-02-04 15:25:00,
2013-02-04 09:40:00,47.3,36.0,29.92,SSW,202,7.0,14.0,65,0.00,,,0.00,weatherlink.com 1.10,2013-02-04 15:40:00,
2013-02-04 09:55:00,47.6,37.0,29.92,SW,223,9.0,13.0,66,0.00,,,0.00,weatherlink.com 1.10,2013-02-04 15:55:00,
2013-02-04 10:10:00,48.5,37.0,29.91,SSW,209,7.0,14.0,65,0.00,,,0.00,weatherlink.com 1.10,2013-02-04 16:10:00,
2013-02-04 10:25:00,48.5,38.0,29.91,SW,231,8.0,13.0,68,0.00,,,0.00,weatherlink.com 1.10,2013-02-04 16:25:00,
2013-02-04 10:40:00,49.4,39.0,29.91,SW,221,7.0,20.0,68,0.00,,,0.00,weatherlink.com 1.10,2013-02-04 16:40:00,
2013-02-04 10:55:00,50.8,41.0,29.90,WSW,252,14.0,23.0,68,0.00,,,0.00,weatherlink.com 1.10,2013-02-04 16:55:00,
2013-02-04 11:10:00,51.0,41.0,29.90,WSW,256,14.0,24.0,68,0.00,,,0.00,weatherlink.com 1.10,2013-02-04 17:10:00,
2013-02-04 11:25:00,52.5,42.0,29.89,SSW,212,10.0,24.0,67,0.00,,,0.00,weatherlink.com 1.10,2013-02-04 17:25:00,
2013-02-04 11:40:00,53.7,42.0,29.89,WSW,249,11.0,21.0,64,0.00,,,0.00,weatherlink.com 1.10,2013-02-04 17:40:00,
2013-02-04 11:55:00,55.0,42.0,29.89,WNW,294,14.0,26.0,61,0.00,,,0.00,weatherlink.com 1.10,2013-02-04 17:55:00,
2013-02-04 12:10:00,55.5,41.0,29.89,SSE,151,8.0,20.0,59,0.00,,,0.00,weatherlink.com 1.10,2013-02-04 18:10:00,
2013-02-04 12:25:00,56.0,42.0,29.87,WSW,246,15.0,19.0,59,0.00,,,0.00,weatherlink.com 1.10,2013-02-04 18:25:00,
2013-02-04 12:40:00,56.8,41.0,29.87,WNW,293,12.0,24.0,55,0.00,,,0.00,weatherlink.com 1.10,2013-02-04 18:40:00,
2013-02-04 12:55:00,56.2,40.0,29.86,WNW,288,2.0,17.0,55,0.00,,,0.00,weatherlink.com 1.10,2013-02-04 18:55:00,
2013-02-04 13:10:00,57.3,41.0,29.86,West,279,12.0,19.0,55,0.00,,,0.00,weatherlink.com 1.10,2013-02-04 19:10:00,
2013-02-04 13:25:00,58.1,40.0,29.86,West,280,13.0,23.0,52,0.00,,,0.00,weatherlink.com 1.10,2013-02-04 19:25:00,
2013-02-04 13:40:00,58.5,40.0,29.85,West,268,14.0,17.0,50,0.00,,,0.00,weatherlink.com 1.10,2013-02-04 19:40:00,
2013-02-04 13:55:00,58.1,40.0,29.85,NW,314,5.0,22.0,52,0.00,,,0.00,weatherlink.com 1.10,2013-02-04 19:55:00,
2013-02-04 14:10:00,58.7,39.0,29.84,West,275,6.0,19.0,49,0.00,,,0.00,weatherlink.com 1.10,2013-02-04 20:10:00,
2013-02-04 14:25:00,58.9,41.0,29.84,West,259,14.0,20.0,51,0.00,,,0.00,weatherlink.com 1.10,2013-02-04 20:25:00,
2013-02-04 14:40:00,57.4,38.0,29.84,West,271,8.0,17.0,49,0.00,,,0.00,weatherlink.com 1.10,2013-02-04 20:40:00,
2013-02-04 14:55:00,57.6,38.0,29.84,NW,305,9.0,17.0,49,0.00,,,0.00,weatherlink.com 1.10,2013-02-04 20:55:00,
2013-02-04 15:10:00,58.1,37.0,29.84,WNW,287,14.0,17.0,46,0.00,,,0.00,weatherlink.com 1.10,2013-02-04 21:10:00,
2013-02-04 15:25:00,58.8,37.0,29.84,WNW,297,14.0,14.0,45,0.00,,,0.00,weatherlink.com 1.10,2013-02-04 21:25:00,
2013-02-04 15:40:00,58.5,36.0,29.85,WNW,296,6.0,14.0,44,0.00,,,0.00,weatherlink.com 1.10,2013-02-04 21:40:00,
2013-02-04 15:55:00,58.4,37.0,29.85,NW,309,14.0,16.0,45,0.00,,,0.00,weatherlink.com 1.10,2013-02-04 21:55:00,
2013-02-04 16:10:00,57.9,35.0,29.85,NW,304,4.0,13.0,43,0.00,,,0.00,weatherlink.com 1.10,2013-02-04 22:10:00,
2013-02-04 16:25:00,58.2,36.0,29.85,NW,324,5.0,12.0,43,0.00,,,0.00,weatherlink.com 1.10,2013-02-04 22:25:00,
2013-02-04 16:40:00,57.3,35.0,29.85,NW,315,6.0,13.0,43,0.00,,,0.00,weatherlink.com 1.10,2013-02-04 22:40:00,
2013-02-04 16:55:00,56.2,35.0,29.85,NNW,331,5.0,12.0,45,0.00,,,0.00,weatherlink.com 1.10,2013-02-04 22:55:00,
2013-02-04 17:10:00,54.9,35.0,29.86,NNW,337,5.0,10.0,48,0.00,,,0.00,weatherlink.com 1.10,2013-02-04 23:10:00,
2013-02-04 17:26:00,53.9,35.0,29.86,NW,326,3.0,7.0,50,0.00,,,0.00,weatherlink.com 1.10,2013-02-04 23:26:00,
2013-02-04 17:41:00,52.3,35.0,29.87,NW,325,4.0,11.0,52,0.00,,,0.00,weatherlink.com 1.10,2013-02-04 23:41:00,
2013-02-04 17:56:00,51.1,34.0,29.88,North,355,8.0,12.0,53,0.00,,,0.00,weatherlink.com 1.10,2013-02-04 23:56:00,
2013-02-04 18:11:00,49.8,34.0,29.89,North,360,6.0,10.0,54,0.00,,,0.00,weatherlink.com 1.10,2013-02-05 00:11:00,
2013-02-04 18:26:00,48.5,33.0,29.90,North,350,7.0,10.0,55,0.00,,,0.00,weatherlink.com 1.10,2013-02-05 00:26:00,
2013-02-04 18:41:00,47.8,33.0,29.91,North,349,2.0,8.0,57,0.00,,,0.00,weatherlink.com 1.10,2013-02-05 00:41:00,
2013-02-04 18:56:00,46.8,33.0,29.91,North,350,7.0,12.0,58,0.00,,,0.00,weatherlink.com 1.10,2013-02-05 00:56:00,
2013-02-04 19:11:00,45.9,33.0,29.92,North,5,7.0,8.0,60,0.00,,,0.00,weatherlink.com 1.10,2013-02-05 01:11:00,
2013-02-04 19:26:00,44.9,32.0,29.92,NNW,346,5.0,9.0,62,0.00,,,0.00,weatherlink.com 1.10,2013-02-05 01:26:00,
2013-02-04 19:41:00,44.0,33.0,29.92,NNE,16,7.0,9.0,65,0.00,,,0.00,weatherlink.com 1.10,2013-02-05 01:41:00,
2013-02-04 19:56:00,42.9,33.0,29.93,NNW,342,2.0,6.0,68,0.00,,,0.00,weatherlink.com 1.10,2013-02-05 01:56:00,
2013-02-04 20:11:00,42.4,33.0,29.94,North,5,4.0,8.0,70,0.00,,,0.00,weatherlink.com 1.10,2013-02-05 02:11:00,
2013-02-04 20:26:00,41.6,33.0,29.93,North,11,4.0,6.0,71,0.00,,,0.00,weatherlink.com 1.10,2013-02-05 02:26:00,
2013-02-04 20:41:00,41.0,33.0,29.94,North,5,4.0,7.0,73,0.00,,,0.00,weatherlink.com 1.10,2013-02-05 02:41:00,
2013-02-04 20:56:00,40.7,33.0,29.95,NNW,348,5.0,6.0,74,0.00,,,0.00,weatherlink.com 1.10,2013-02-05 02:56:00,
2013-02-04 21:11:00,40.1,33.0,29.96,North,5,4.0,7.0,75,0.00,,,0.00,weatherlink.com 1.10,2013-02-05 03:11:00,
2013-02-04 21:26:00,39.2,33.0,29.96,North,9,3.0,7.0,77,0.00,,,0.00,weatherlink.com 1.10,2013-02-05 03:26:00,
2013-02-04 21:41:00,38.2,32.0,29.96,NNE,13,7.0,8.0,78,0.00,,,0.00,weatherlink.com 1.10,2013-02-05 03:41:00,
2013-02-04 21:56:00,37.4,32.0,29.96,NNE,21,5.0,6.0,80,0.00,,,0.00,weatherlink.com 1.10,2013-02-05 03:56:00,
2013-02-04 22:11:00,36.9,31.0,29.96,NE,34,3.0,6.0,80,0.00,,,0.00,weatherlink.com 1.10,2013-02-05 04:11:00,
2013-02-04 22:26:00,36.2,31.0,29.96,ENE,67,5.0,7.0,81,0.00,,,0.00,weatherlink.com 1.10,2013-02-05 04:26:00,
2013-02-04 22:41:00,35.1,30.0,29.96,ENE,72,3.0,5.0,83,0.00,,,0.00,weatherlink.com 1.10,2013-02-05 04:41:00,
2013-02-04 22:56:00,34.2,30.0,29.96,ENE,75,2.0,4.0,83,0.00,,,0.00,weatherlink.com 1.10,2013-02-05 04:56:00,
2013-02-04 23:11:00,33.8,30.0,29.96,ENE,74,2.0,3.0,85,0.00,,,0.00,weatherlink.com 1.10,2013-02-05 05:11:00,
2013-02-04 23:26:00,33.7,30.0,29.96,ENE,62,3.0,5.0,85,0.00,,,0.00,weatherlink.com 1.10,2013-02-05 05:26:00,
2013-02-04 23:41:00,33.2,29.0,29.96,NE,35,4.0,5.0,85,0.00,,,0.00,weatherlink.com 1.10,2013-02-05 05:41:00,
2013-02-04 23:56:00,32.6,29.0,29.96,NNE,32,4.0,5.0,85,0.00,,,0.00,weatherlink.com 1.10,2013-02-05 05:56:00,